Welcome to our new website - Welkom op onze vernieuwde website - Bienvenue sur notre nouveau site web - Willkommen auf unserer neuen Website
Check our progress frequently. Prüfen Sie unsere Fortschritte regelmäßig. Consultez notre progression fréquemment. Komt u straks nog eens terug
Extreme hitte van: 23-07-2019 04:59 tot: 24-07-2019 23:59 waarschuwing voor: Extreme hitte niveau: Oranje info button

Regen radar Meer informatie rain snow radar


Bezoek ook deze websites:

Template documentation
and downloads

And another site


U vindt ons ook hier:

UK Metoffice

WeatherCloud

Weather Underground

AWEKAS


METAR rapporten vliegvelden

Warning: A non-numeric value encountered in /customers/a/f/b/meteoassenede.be/httpd.www/weather28/metar/metarDisplay.php on line 166 Warning: A non-numeric value encountered in /customers/a/f/b/meteoassenede.be/httpd.www/weather28/metar/metarDisplay.php on line 166 Warning: A non-numeric value encountered in /customers/a/f/b/meteoassenede.be/httpd.www/weather28/metar/metarDisplay.php on line 166 Warning: A non-numeric value encountered in /customers/a/f/b/meteoassenede.be/httpd.www/weather28/metar/metarDisplay.php on line 166 Warning: A non-numeric value encountered in /customers/a/f/b/meteoassenede.be/httpd.www/weather28/metar/metarDisplay.php on line 166
   
EBBR - Brussels International Airport, Belgium
Afstand tot: W 14 km
Gewijzigd: 23-07-2019 05:20
Helder  
Helder  
   Wind: Kalm
Wind: Kalm
Temperatuur: 16°C
Dauwpunt: 15°C
Vochtigheid: 94%
Barometer: 1022 hPa
Zicht: meer dan 10 km
Bewolking: Helder
EBBR 230320Z 00000KT CAVOK 16/15 Q1022 NOSIG
EBBE - Beauvechain (Bevekom), Belgium
Afstand tot: ZZO 17 km
Gewijzigd: 23-07-2019 05:25
Helder  
Helder  
   Wind: varieert 2 km/h
Wind: varieert 2 km/h
Temperatuur: 18°C
Dauwpunt: 15°C
Vochtigheid: 83%
Barometer: 1022 hPa
Bewolking: Helder
Zicht: meer dan 10 km
Bewolking: Helder
EBBE 230325Z AUTO VRB01KT 9999 NCD 18/15 Q1022 BLU
EBDT - Schaffen, Belgium
Afstand tot: ONO 29 km
Gewijzigd: 23-07-2019 05:25
Shallow Fog, Grotendeels bewolkt  
Shallow Fog, Grotendeels bewolkt  
   Wind: varieert 2 km/h
Wind: varieert 2 km/h
Temperatuur: 18°C
Dauwpunt: 15°C
Vochtigheid: 83%
Barometer: 1022 hPa
Bewolking: Grotendeels bewolkt
Zicht: meer dan 10 km
Bewolking: Grotendeels bewolkt 21000 ft
EBDT 230325Z VRB01KT 9999 MIFG BKN210 18/15 Q1022 BLU BLU
EBAW - Antwerp/Deurne, Belgium
Afstand tot: NNW 38 km
Gewijzigd: 23-07-2019 05:20
Helder  
Helder  
   Wind: OZO 4 km/h
Wind: OZO 4 km/h
Temperatuur: 16°C
Dauwpunt: 15°C
Vochtigheid: 94%
Barometer: 1022 hPa
Zicht: meer dan 10 km
Bewolking: Helder
EBAW 230320Z AUTO 12002KT CAVOK 16/15 Q1022
EBCI - Charleroi/Gosselies, Belgium
Afstand tot: ZZW 51 km
Gewijzigd: 23-07-2019 05:20
Helder  
Helder  
   Wind: ONO 4 km/h
Wind: ONO 4 km/h
Temperatuur: 17°C
Dauwpunt: 14°C
Vochtigheid: 83%
Barometer: 1022 hPa
Zicht: meer dan 10 km
Bewolking: Helder
EBCI 230320Z 06002KT CAVOK 17/14 Q1022 NOSIG
EBLG - Bierset/Liege, Belgium
Afstand tot: OZO 60 km
Gewijzigd: 23-07-2019 05:20
Helder  
Helder  
   Wind: ZO 11 km/h
Wind: ZO 11 km/h
Temperatuur: 18°C
Dauwpunt: 14°C
Vochtigheid: 78%
Barometer: 1022 hPa
Zicht: meer dan 10 km
Bewolking: Helder
EBLG 230320Z 14006KT 130V190 CAVOK 18/14 Q1022 NOSIG

Script ontwikkeld door  Saratoga-weather.org Aangepast voor de template door  Weerstation Leuven

Apparatuur in gebruik:

Weerstation
Davis Vantage Pro2

Weerprogramma
Meteobridge

Weercomputer
TP-Link TL-MR3020

Webleverancier
One.com

Davis Vantage Pro2

Meteobridge

TP-Link TL-MR3020

One.com